Shorewood, Illinois
Current Conditions -  °F | °C
As of 5:15 AM on Wednesday 26 Nov 2014 (Local Time) from KJOT Reporting Station
Overcast Overcast  
Wind Chill: 21°   Ceiling: 1500
Heat Index: 21°   Visibility: 7mi
Dew Point: 19°   Wind: 3mph
Humidity: 89%   Direction: 110°ESE
Pressure: 30.16"   Gusts: NA
Location:  41.5°N, 88.22°W
Report Text: KJOT 261115Z AUTO 11003KT 7SM OVC015 M06/M07 A3016 RMK AO2 T10601075
Loading
Personal Weather Stations






























Interactive Weather Map New forecast layout! Learn more

10-Day Weather Forecast

Advertisements
Track Severe Weather on mobile